createdAt,value
2018-03-11T00:01:31.561Z,99958.09
2018-03-11T00:03:59.122Z,99954.41
2018-03-11T00:06:26.642Z,99951.01
2018-03-11T00:08:54.938Z,99943.19
2018-03-11T00:11:22.485Z,99947.37
2018-03-11T00:13:50.008Z,99949.42
2018-03-11T00:16:17.536Z,99951.03
2018-03-11T00:18:45.385Z,99953.09
2018-03-11T00:21:12.910Z,99954.86
2018-03-11T00:23:40.454Z,99958.23
2018-03-11T00:26:07.989Z,99959.48
2018-03-11T00:28:35.501Z,99953.30
2018-03-11T00:31:03.029Z,99955.92
2018-03-11T00:33:30.555Z,99957.11
2018-03-11T00:35:58.170Z,99960.44
2018-03-11T00:38:26.326Z,99951.69
2018-03-11T00:40:56.462Z,99951.12
2018-03-11T00:43:23.983Z,99949.78
2018-03-11T00:45:51.503Z,99947.09
2018-03-11T00:48:19.028Z,99946.56
2018-03-11T00:50:46.567Z,99943.44
2018-03-11T00:53:14.080Z,99937.90
2018-03-11T00:55:41.606Z,99938.25
2018-03-11T00:58:09.201Z,99931.05
2018-03-11T01:00:38.462Z,99930.66
2018-03-11T01:03:05.980Z,99927.56
2018-03-11T01:05:33.695Z,99922.78
2018-03-11T01:08:01.221Z,99918.94
2018-03-11T01:10:28.758Z,99913.81
2018-03-11T01:12:56.284Z,99912.36
2018-03-11T01:15:23.814Z,99909.61
2018-03-11T01:17:51.401Z,99914.77
2018-03-11T01:20:18.923Z,99916.28
2018-03-11T01:22:46.547Z,99915.77
2018-03-11T01:25:14.063Z,99916.85
2018-03-11T01:27:41.599Z,99915.94
2018-03-11T01:30:09.121Z,99912.73
2018-03-11T01:32:37.330Z,99906.45
2018-03-11T01:35:04.855Z,99906.66
2018-03-11T01:37:32.376Z,99911.52
2018-03-11T01:39:59.898Z,99904.28
2018-03-11T01:42:27.414Z,99906.66
2018-03-11T01:44:54.931Z,99910.73
2018-03-11T01:47:22.440Z,99916.94
2018-03-11T01:49:49.963Z,99912.45
2018-03-11T01:52:18.565Z,99912.61
2018-03-11T01:54:46.085Z,99923.14
2018-03-11T01:57:14.538Z,99915.95
2018-03-11T01:59:42.092Z,99914.35
2018-03-11T02:02:09.950Z,99922.89
2018-03-11T02:04:37.478Z,99919.30
2018-03-11T02:07:05.827Z,99919.09
2018-03-11T02:09:33.356Z,99917.53
2018-03-11T02:12:00.888Z,99915.13
2018-03-11T02:14:28.765Z,99911.95
2018-03-11T02:16:56.537Z,99909.58
2018-03-11T02:19:24.068Z,99904.13
2018-03-11T02:21:51.586Z,99906.92
2018-03-11T02:24:19.116Z,99907.02
2018-03-11T02:26:46.639Z,99897.88
2018-03-11T02:29:14.157Z,99898.75
2018-03-11T02:31:41.674Z,99895.86
2018-03-11T02:34:09.203Z,99897.67
2018-03-11T02:36:36.715Z,99893.33
2018-03-11T02:39:04.239Z,99893.21
2018-03-11T02:41:31.762Z,99893.94
2018-03-11T02:43:59.289Z,99891.22
2018-03-11T02:46:26.805Z,99892.47
2018-03-11T02:48:54.328Z,99886.27
2018-03-11T02:51:21.847Z,99896.34
2018-03-11T02:53:49.366Z,99893.89
2018-03-11T02:56:16.894Z,99891.10
2018-03-11T02:58:44.410Z,99890.19
2018-03-11T03:01:11.957Z,99890.56
2018-03-11T03:03:39.477Z,99887.45
2018-03-11T03:06:06.994Z,99891.23
2018-03-11T03:08:34.506Z,99889.30
2018-03-11T03:11:02.018Z,99887.58
2018-03-11T03:13:29.619Z,99885.69
2018-03-11T03:15:57.143Z,99887.33
2018-03-11T03:18:24.658Z,99885.86
2018-03-11T03:20:52.189Z,99891.46
2018-03-11T03:23:19.710Z,99875.11
2018-03-11T03:25:47.235Z,99878.72
2018-03-11T03:28:14.758Z,99879.28
2018-03-11T03:30:42.274Z,99878.23
2018-03-11T03:33:09.795Z,99877.30
2018-03-11T03:35:37.317Z,99881.69
2018-03-11T03:38:04.834Z,99879.10
2018-03-11T03:40:32.361Z,99881.47
2018-03-11T03:42:59.892Z,99883.23
2018-03-11T03:45:27.412Z,99872.47
2018-03-11T03:47:54.931Z,99880.73
2018-03-11T03:50:22.459Z,99882.24
2018-03-11T03:52:49.981Z,99885.99
2018-03-11T03:55:17.522Z,99884.61
2018-03-11T03:57:45.038Z,99886.63
2018-03-11T04:00:12.558Z,99888.17
2018-03-11T04:02:40.069Z,99883.44
2018-03-11T04:05:07.592Z,99877.80
2018-03-11T04:07:35.105Z,99884.12
2018-03-11T04:10:02.613Z,99881.55
2018-03-11T04:12:30.129Z,99873.45
2018-03-11T04:14:57.649Z,99875.23
2018-03-11T04:17:25.174Z,99873.11
2018-03-11T04:19:52.690Z,99866.61
2018-03-11T04:22:20.611Z,99864.45
2018-03-11T04:24:48.138Z,99867.43
2018-03-11T04:27:15.660Z,99869.97
2018-03-11T04:29:43.181Z,99870.14
2018-03-11T04:32:10.702Z,99865.06
2018-03-11T04:34:38.250Z,99862.91
2018-03-11T04:37:05.760Z,99861.80
2018-03-11T04:39:34.268Z,99867.20
2018-03-11T04:42:01.791Z,99866.61
2018-03-11T04:44:29.302Z,99861.17
2018-03-11T04:46:56.828Z,99857.09
2018-03-11T04:49:24.349Z,99859.02
2018-03-11T04:51:51.863Z,99853.77
2018-03-11T04:54:20.080Z,99854.69
2018-03-11T04:56:47.599Z,99852.66
2018-03-11T04:59:15.122Z,99857.04
2018-03-11T05:01:42.639Z,99852.18
2018-03-11T05:04:10.480Z,99856.09
2018-03-11T05:06:38.009Z,99851.48
2018-03-11T05:09:05.522Z,99849.91
2018-03-11T05:11:33.037Z,99846.59
2018-03-11T05:14:00.552Z,99849.37
2018-03-11T05:16:28.068Z,99842.08
2018-03-11T05:18:55.582Z,99845.27
2018-03-11T05:21:23.109Z,99840.27
2018-03-11T05:23:50.635Z,99837.38
2018-03-11T05:26:18.150Z,99838.11
2018-03-11T05:28:45.672Z,99845.69
2018-03-11T05:31:13.199Z,99841.05
2018-03-11T05:33:40.726Z,99840.06
2018-03-11T05:36:08.262Z,99836.83
2018-03-11T05:38:35.798Z,99837.42
2018-03-11T05:41:03.305Z,99837.18
2018-03-11T05:43:30.818Z,99832.27
2018-03-11T05:45:59.362Z,99833.86
2018-03-11T05:48:28.007Z,99826.20
2018-03-11T05:50:55.525Z,99816.44
2018-03-11T05:53:23.037Z,99834.47
2018-03-11T05:55:50.570Z,99830.38
2018-03-11T05:58:18.636Z,99830.21
2018-03-11T06:00:46.164Z,99828.61
2018-03-11T06:03:13.685Z,99831.66
2018-03-11T06:05:41.206Z,99825.33
2018-03-11T06:08:08.729Z,99832.66
2018-03-11T06:10:37.314Z,99830.80
2018-03-11T06:13:04.805Z,99829.30
2018-03-11T06:15:32.337Z,99828.34
2018-03-11T06:17:59.854Z,99823.95
2018-03-11T06:20:27.380Z,99819.79
2018-03-11T06:22:54.898Z,99820.32
2018-03-11T06:25:22.431Z,99818.80
2018-03-11T06:27:50.753Z,99807.97
2018-03-11T06:30:18.275Z,99809.78
2018-03-11T06:32:46.857Z,99805.86
2018-03-11T06:35:14.374Z,99807.86
2018-03-11T06:37:41.899Z,99809.10
2018-03-11T06:40:10.231Z,99814.34
2018-03-11T06:42:37.754Z,99809.33
2018-03-11T06:45:05.271Z,99809.59
2018-03-11T06:47:32.795Z,99816.59
2018-03-11T06:50:01.174Z,99818.37
2018-03-11T06:52:28.693Z,99822.52
2018-03-11T06:54:56.243Z,99821.42
2018-03-11T06:57:23.765Z,99833.08
2018-03-11T06:59:51.289Z,99827.39
2018-03-11T07:02:19.020Z,99817.56
2018-03-11T07:04:46.536Z,99820.95
2018-03-11T07:07:14.065Z,99814.27
2018-03-11T07:09:41.970Z,99817.50
2018-03-11T07:12:10.813Z,99817.23
2018-03-11T07:14:38.379Z,99819.03
2018-03-11T07:17:05.910Z,99822.46
2018-03-11T07:19:33.442Z,99818.87
2018-03-11T07:22:00.966Z,99824.09
2018-03-11T07:24:28.491Z,99816.05
2018-03-11T07:26:56.784Z,99808.66
2018-03-11T07:29:24.300Z,99810.59
2018-03-11T07:31:52.190Z,99815.70
2018-03-11T07:34:19.721Z,99811.42
2018-03-11T07:36:47.689Z,99812.86
2018-03-11T07:39:15.204Z,99814.36
2018-03-11T07:41:43.626Z,99807.02
2018-03-11T07:44:11.179Z,99795.42
2018-03-11T07:46:39.740Z,99807.38
2018-03-11T07:49:07.472Z,99800.77
2018-03-11T07:51:34.991Z,99807.73
2018-03-11T07:54:02.541Z,99804.77
2018-03-11T07:56:30.078Z,99804.22
2018-03-11T07:58:58.457Z,99796.27
2018-03-11T08:01:26.018Z,99799.97
2018-03-11T08:03:53.546Z,99806.91
2018-03-11T08:06:21.071Z,99790.84
2018-03-11T08:08:48.650Z,99795.01
2018-03-11T08:11:16.200Z,99802.20
2018-03-11T08:13:43.719Z,99799.34
2018-03-11T08:16:11.246Z,99792.30
2018-03-11T08:18:39.382Z,99788.25
2018-03-11T08:21:06.939Z,99783.10
2018-03-11T08:23:35.255Z,99783.42
2018-03-11T08:26:02.790Z,99786.55
2018-03-11T08:28:32.124Z,99783.77
2018-03-11T08:30:59.645Z,99782.96
2018-03-11T08:33:30.223Z,99773.59
2018-03-11T08:35:57.803Z,99765.39
2018-03-11T08:38:25.424Z,99756.95
2018-03-11T08:40:52.946Z,99771.35
2018-03-11T08:43:20.680Z,99763.77
2018-03-11T08:45:48.207Z,99758.88
2018-03-11T08:48:15.747Z,99755.70
2018-03-11T08:50:43.290Z,99751.39
2018-03-11T08:53:11.332Z,99747.69
2018-03-11T08:55:38.853Z,99745.67
2018-03-11T08:58:06.388Z,99753.62
2018-03-11T09:00:33.979Z,99753.59
2018-03-11T09:03:02.006Z,99748.39
2018-03-11T09:05:30.897Z,99749.41
2018-03-11T09:07:58.426Z,99748.52
2018-03-11T09:10:26.116Z,99740.45
2018-03-11T09:12:53.551Z,99750.53
2018-03-11T09:15:21.110Z,99739.60
2018-03-11T09:17:48.637Z,99742.22
2018-03-11T09:20:16.337Z,99739.94
2018-03-11T09:22:44.799Z,99753.66
2018-03-11T09:25:12.730Z,99748.25
2018-03-11T09:27:40.248Z,99745.20
2018-03-11T09:30:11.453Z,99746.13
2018-03-11T09:32:39.421Z,99742.17
2018-03-11T09:35:07.012Z,99734.30
2018-03-11T09:37:35.146Z,99723.91
2018-03-11T09:40:02.688Z,99721.76
2018-03-11T09:42:30.226Z,99717.67
2018-03-11T09:44:59.051Z,99720.02
2018-03-11T09:47:30.289Z,99730.00
2018-03-11T09:49:57.860Z,99708.65
2018-03-11T09:52:25.432Z,99718.59
2018-03-11T09:54:55.286Z,99698.33
2018-03-11T09:57:23.806Z,99700.11
2018-03-11T09:59:51.576Z,99692.97
2018-03-11T10:02:20.741Z,99696.70
2018-03-11T10:04:50.512Z,99694.27
2018-03-11T10:07:19.530Z,99700.11
2018-03-11T10:09:47.901Z,99700.13
2018-03-11T10:12:15.473Z,99711.73
2018-03-11T10:14:44.517Z,99686.45
2018-03-11T10:17:12.110Z,99696.61
2018-03-11T10:19:40.334Z,99702.52
2018-03-11T10:22:07.864Z,99701.95
2018-03-11T10:24:36.990Z,99703.27
2018-03-11T10:27:05.395Z,99705.61
2018-03-11T10:29:32.912Z,99706.69
2018-03-11T10:32:01.386Z,99705.23
2018-03-11T10:34:30.211Z,99704.48
2018-03-11T10:36:57.831Z,99710.33
2018-03-11T10:39:28.726Z,99694.72
2018-03-11T10:41:57.272Z,99713.27
2018-03-11T10:44:24.958Z,99705.02
2018-03-11T10:46:53.263Z,99692.68
2018-03-11T10:49:21.752Z,99702.46
2018-03-11T10:51:49.274Z,99691.81
2018-03-11T10:54:18.325Z,99669.52
2018-03-11T10:56:46.366Z,99664.80
2018-03-11T10:59:13.886Z,99657.07
2018-03-11T11:02:01.826Z,99661.17
2018-03-11T11:07:29.946Z,99651.88
2018-03-11T11:09:57.506Z,99650.55
2018-03-11T11:12:25.029Z,99631.66
2018-03-11T11:14:53.304Z,99643.03
2018-03-11T11:17:20.822Z,99642.83
2018-03-11T11:19:48.344Z,99637.63
2018-03-11T11:22:15.865Z,99633.17
2018-03-11T11:24:43.374Z,99632.34
2018-03-11T11:27:10.888Z,99636.52
2018-03-11T11:29:38.402Z,99637.79
2018-03-11T11:32:05.922Z,99631.50
2018-03-11T11:34:33.438Z,99624.62
2018-03-11T11:37:00.966Z,99615.20
2018-03-11T11:39:28.487Z,99617.92
2018-03-11T11:41:56.004Z,99614.11
2018-03-11T11:44:23.528Z,99614.47
2018-03-11T11:46:51.054Z,99604.54
2018-03-11T11:49:18.577Z,99609.06
2018-03-11T11:51:46.167Z,99619.48
2018-03-11T11:54:13.695Z,99612.77
2018-03-11T11:56:41.221Z,99608.41
2018-03-11T11:59:40.322Z,99605.36
2018-03-11T12:02:07.888Z,99587.70
2018-03-11T12:04:35.447Z,99580.27
2018-03-11T12:07:02.982Z,99581.63
2018-03-11T12:09:30.522Z,99577.17
2018-03-11T12:11:59.061Z,99576.03
2018-03-11T12:14:26.606Z,99573.36
2018-03-11T12:16:54.759Z,99552.06
2018-03-11T12:19:22.393Z,99546.07
2018-03-11T12:21:49.996Z,99540.58
2018-03-11T12:24:17.542Z,99541.54
2018-03-11T12:26:45.056Z,99535.50
2018-03-11T12:29:12.600Z,99528.96
2018-03-11T12:31:40.209Z,99517.27
2018-03-11T12:34:07.721Z,99509.61
2018-03-11T12:36:35.232Z,99512.02
2018-03-11T12:39:02.741Z,99513.30
2018-03-11T12:41:30.283Z,99511.73
2018-03-11T12:43:57.801Z,99514.52
2018-03-11T12:46:25.349Z,99515.69
2018-03-11T12:48:52.864Z,99521.37
2018-03-11T12:51:20.393Z,99519.23
2018-03-11T12:53:47.901Z,99523.59
2018-03-11T12:56:15.451Z,99515.53
2018-03-11T12:58:42.972Z,99510.34
2018-03-11T13:01:10.487Z,99504.47
2018-03-11T13:03:38.010Z,99502.76
2018-03-11T13:06:05.534Z,99510.95
2018-03-11T13:08:33.062Z,99505.44
2018-03-11T13:11:00.581Z,99522.75
2018-03-11T13:13:28.209Z,99520.28
2018-03-11T13:15:55.782Z,99509.86
2018-03-11T13:18:23.310Z,99503.17
2018-03-11T13:21:02.620Z,99492.94
2018-03-11T13:23:30.146Z,99488.43
2018-03-11T13:25:57.669Z,99486.49
2018-03-11T13:28:37.074Z,99489.44
2018-03-11T13:31:04.664Z,99479.06
2018-03-11T13:33:43.832Z,99473.61
2018-03-11T13:36:11.350Z,99471.94
2018-03-11T13:38:50.699Z,99467.70
2018-03-11T13:41:18.275Z,99473.61
2018-03-11T13:43:45.956Z,99472.83
2018-03-11T13:46:25.509Z,99472.84
2018-03-11T13:48:53.346Z,99468.31
2018-03-11T13:51:32.706Z,99477.91
2018-03-11T13:54:00.278Z,99501.63
2018-03-11T13:56:27.798Z,99498.70
2018-03-11T13:58:55.311Z,99488.42
2018-03-11T14:01:22.845Z,99476.08
2018-03-11T14:03:50.361Z,99478.30
2018-03-11T14:06:17.870Z,99480.13
2018-03-11T14:08:45.384Z,99470.77
2018-03-11T14:11:12.906Z,99475.50
2018-03-11T14:13:40.446Z,99465.02
2018-03-11T14:16:07.974Z,99466.08
2018-03-11T14:18:35.521Z,99465.09
2018-03-11T14:21:03.032Z,99457.02
2018-03-11T14:23:30.553Z,99454.66
2018-03-11T14:25:58.097Z,99445.77
2018-03-11T14:28:25.601Z,99441.13
2018-03-11T14:30:53.126Z,99435.11
2018-03-11T14:33:20.688Z,99429.27
2018-03-11T14:35:48.710Z,99426.42
2018-03-11T14:38:16.229Z,99421.44
2018-03-11T14:40:43.888Z,99423.72
2018-03-11T14:43:11.649Z,99420.08
2018-03-11T14:45:39.179Z,99416.02
2018-03-11T14:48:06.696Z,99404.81
2018-03-11T14:50:34.324Z,99396.61
2018-03-11T14:53:01.840Z,99391.90
2018-03-11T14:55:29.376Z,99386.54
2018-03-11T14:57:56.899Z,99381.72
2018-03-11T15:00:24.431Z,99379.17
2018-03-11T15:02:51.946Z,99383.43
2018-03-11T15:05:19.469Z,99371.05
2018-03-11T15:07:46.977Z,99376.84
2018-03-11T15:10:14.495Z,99379.20
2018-03-11T15:12:42.130Z,99373.93
2018-03-11T15:15:09.670Z,99373.12
2018-03-11T15:17:37.281Z,99373.97
2018-03-11T15:20:04.799Z,99373.54
2018-03-11T15:22:32.315Z,99369.63
2018-03-11T15:24:59.833Z,99370.25
2018-03-11T15:27:27.345Z,99366.77
2018-03-11T15:29:54.860Z,99367.85
2018-03-11T15:32:22.436Z,99361.70
2018-03-11T15:34:49.954Z,99362.05
2018-03-11T15:37:17.471Z,99361.44
2018-03-11T15:39:45.002Z,99359.57
2018-03-11T15:42:12.541Z,99362.46
2018-03-11T15:44:40.082Z,99366.80
2018-03-11T15:47:07.616Z,99367.09
2018-03-11T15:49:35.203Z,99366.48
2018-03-11T15:52:02.714Z,99359.14
2018-03-11T15:54:30.374Z,99364.86
2018-03-11T15:56:57.910Z,99361.84
2018-03-11T15:59:25.446Z,99355.69
2018-03-11T16:01:52.952Z,99348.05
2018-03-11T16:04:20.492Z,99342.82
2018-03-11T16:06:48.072Z,99344.52
2018-03-11T16:09:15.589Z,99347.30
2018-03-11T16:11:43.181Z,99344.50
2018-03-11T16:14:10.740Z,99333.17
2018-03-11T16:16:38.244Z,99338.30
2018-03-11T16:19:05.876Z,99329.17
2018-03-11T16:21:33.434Z,99328.24
2018-03-11T16:24:00.958Z,99332.48
2018-03-11T16:26:28.548Z,99335.11
2018-03-11T16:28:56.078Z,99331.13
2018-03-11T16:31:23.674Z,99330.77
2018-03-11T16:33:51.191Z,99324.42
2018-03-11T16:36:18.724Z,99318.11
2018-03-11T16:38:46.269Z,99330.25
2018-03-11T16:41:13.796Z,99331.87
2018-03-11T16:43:41.366Z,99324.83
2018-03-11T16:46:08.944Z,99335.55
2018-03-11T16:48:36.451Z,99340.36
2018-03-11T16:51:03.979Z,99340.52
2018-03-11T16:53:31.508Z,99333.31
2018-03-11T16:55:59.035Z,99331.87
2018-03-11T16:58:26.573Z,99335.66
2018-03-11T17:00:54.092Z,99342.38
2018-03-11T17:03:21.612Z,99355.82
2018-03-11T17:05:49.136Z,99361.70
2018-03-11T17:08:16.655Z,99357.76
2018-03-11T17:10:44.173Z,99353.89
2018-03-11T17:13:11.694Z,99357.84
2018-03-11T17:15:39.222Z,99354.35
2018-03-11T17:18:06.754Z,99351.37
2018-03-11T17:20:34.368Z,99341.98
2018-03-11T17:23:01.881Z,99334.06
2018-03-11T17:25:29.439Z,99333.64
2018-03-11T17:27:56.961Z,99335.45
2018-03-11T17:30:24.481Z,99338.66
2018-03-11T17:32:51.993Z,99350.06
2018-03-11T17:35:19.512Z,99358.48
2018-03-11T17:37:47.033Z,99356.59
2018-03-11T17:40:14.562Z,99357.62
2018-03-11T17:42:42.098Z,99346.33
2018-03-11T17:45:09.616Z,99354.06
2018-03-11T17:47:37.141Z,99352.53
2018-03-11T17:50:04.660Z,99353.84
2018-03-11T17:52:32.177Z,99353.91
2018-03-11T17:54:59.780Z,99361.83
2018-03-11T17:57:27.306Z,99360.30
2018-03-11T17:59:54.831Z,99362.14
2018-03-11T18:02:22.342Z,99359.38
2018-03-11T18:04:49.895Z,99356.56
2018-03-11T18:07:17.418Z,99356.27
2018-03-11T18:09:45.053Z,99352.80
2018-03-11T18:12:12.572Z,99358.55
2018-03-11T18:14:40.137Z,99349.17
2018-03-11T18:17:07.688Z,99339.81
2018-03-11T18:19:35.566Z,99344.11
2018-03-11T18:22:04.125Z,99346.62
2018-03-11T18:24:31.656Z,99335.77
2018-03-11T18:26:59.170Z,99338.41
2018-03-11T18:29:26.681Z,99330.69
2018-03-11T18:31:54.216Z,99334.31
2018-03-11T18:34:21.755Z,99335.27
2018-03-11T18:36:49.268Z,99332.31
2018-03-11T18:39:16.793Z,99330.78
2018-03-11T18:41:44.309Z,99332.86
2018-03-11T18:44:11.929Z,99336.05
2018-03-11T18:46:39.458Z,99329.14
2018-03-11T18:49:06.989Z,99325.47
2018-03-11T18:51:34.556Z,99321.53
2018-03-11T18:54:02.091Z,99320.98
2018-03-11T18:56:29.615Z,99320.19
2018-03-11T18:58:57.171Z,99314.97
2018-03-11T19:01:24.701Z,99312.17
2018-03-11T19:03:52.291Z,99312.36
2018-03-11T19:06:19.813Z,99312.95
2018-03-11T19:08:47.354Z,99311.73
2018-03-11T19:11:14.976Z,99304.69
2018-03-11T19:13:42.520Z,99304.56
2018-03-11T19:16:10.044Z,99303.95
2018-03-11T19:18:37.580Z,99303.84
2018-03-11T19:21:05.110Z,99305.10
2018-03-11T19:23:32.693Z,99294.16
2018-03-11T19:26:01.216Z,99299.30
2018-03-11T19:28:28.834Z,99290.42
2018-03-11T19:30:56.354Z,99287.53
2018-03-11T19:33:23.897Z,99285.08
2018-03-11T19:35:51.434Z,99278.34
2018-03-11T19:38:18.969Z,99279.44
2018-03-11T19:40:46.524Z,99288.41
2018-03-11T19:43:14.045Z,99277.14
2018-03-11T19:45:41.580Z,99277.15
2018-03-11T19:48:09.118Z,99280.50
2018-03-11T19:50:36.647Z,99280.92
2018-03-11T19:53:04.209Z,99278.72
2018-03-11T19:55:31.734Z,99283.84
2018-03-11T19:57:59.248Z,99283.22
2018-03-11T20:00:26.772Z,99274.23
2018-03-11T20:02:54.344Z,99277.08
2018-03-11T20:05:21.871Z,99275.53
2018-03-11T20:07:49.397Z,99282.13
2018-03-11T20:10:16.922Z,99275.23
2018-03-11T20:12:44.450Z,99271.06
2018-03-11T20:15:11.979Z,99271.32
2018-03-11T20:17:39.515Z,99265.19
2018-03-11T20:20:07.857Z,99266.75
2018-03-11T20:22:35.381Z,99264.06
2018-03-11T20:25:02.943Z,99267.17
2018-03-11T20:27:30.462Z,99265.53
2018-03-11T20:29:58.014Z,99261.00
2018-03-11T20:32:25.534Z,99258.53
2018-03-11T20:34:53.111Z,99263.30
2018-03-11T20:37:20.630Z,99262.08
2018-03-11T20:39:48.149Z,99262.73
2018-03-11T20:42:15.695Z,99264.00
2018-03-11T20:44:43.230Z,99262.88
2018-03-11T20:47:10.753Z,99260.97
2018-03-11T20:49:38.276Z,99256.43
2018-03-11T20:52:05.793Z,99252.75
2018-03-11T20:54:33.310Z,99253.19
2018-03-11T20:57:00.841Z,99254.59
2018-03-11T20:59:28.358Z,99249.30
2018-03-11T21:01:55.886Z,99261.65
2018-03-11T21:04:23.454Z,99249.77
2018-03-11T21:06:50.974Z,99245.53
2018-03-11T21:09:18.539Z,99242.77
2018-03-11T21:11:46.128Z,99237.45
2018-03-11T21:14:13.645Z,99242.96
2018-03-11T21:16:41.164Z,99238.78
2018-03-11T21:19:08.691Z,99232.34
2018-03-11T21:21:36.216Z,99225.84
2018-03-11T21:24:03.738Z,99218.33
2018-03-11T21:26:31.279Z,99205.39
2018-03-11T21:28:58.843Z,99203.34
2018-03-11T21:31:26.397Z,99209.14
2018-03-11T21:33:53.936Z,99215.50
2018-03-11T21:36:21.463Z,99214.46
2018-03-11T21:38:48.992Z,99216.70
2018-03-11T21:41:16.641Z,99210.00
2018-03-11T21:43:44.301Z,99199.88
2018-03-11T21:46:11.866Z,99206.02
2018-03-11T21:48:39.395Z,99207.36
2018-03-11T21:51:06.932Z,99206.02
2018-03-11T21:53:34.476Z,99204.67
2018-03-11T21:56:02.114Z,99196.10
2018-03-11T21:58:29.693Z,99191.09
2018-03-11T22:00:57.215Z,99198.15
2018-03-11T22:03:24.788Z,99192.69
2018-03-11T22:05:52.303Z,99188.33
2018-03-11T22:08:19.829Z,99190.49
2018-03-11T22:10:47.352Z,99193.23
2018-03-11T22:13:14.925Z,99191.32
2018-03-11T22:15:42.454Z,99194.55
2018-03-11T22:18:09.986Z,99191.92
2018-03-11T22:20:37.563Z,99194.16
2018-03-11T22:23:05.090Z,99190.34
2018-03-11T22:25:32.621Z,99187.44
2018-03-11T22:28:00.146Z,99185.61
2018-03-11T22:30:27.667Z,99182.12
2018-03-11T22:32:55.201Z,99192.44
2018-03-11T22:35:22.718Z,99191.97
2018-03-11T22:37:50.255Z,99187.61
2018-03-11T22:40:17.782Z,99185.41
2018-03-11T22:42:45.308Z,99181.50
2018-03-11T22:45:12.829Z,99188.81
2018-03-11T22:47:40.360Z,99186.70
2018-03-11T22:50:07.881Z,99190.97
2018-03-11T22:52:35.474Z,99184.05
2018-03-11T22:55:03.112Z,99176.08
2018-03-11T22:57:30.638Z,99169.98
2018-03-11T22:59:58.182Z,99170.47
2018-03-11T23:02:25.708Z,99172.65
2018-03-11T23:04:53.241Z,99162.87
2018-03-11T23:07:20.758Z,99157.14
2018-03-11T23:09:48.294Z,99147.97
2018-03-11T23:12:15.821Z,99146.38
2018-03-11T23:14:43.349Z,99143.90
2018-03-11T23:17:10.973Z,99144.38
2018-03-11T23:19:38.502Z,99144.77
2018-03-11T23:22:06.038Z,99141.17
2018-03-11T23:24:33.572Z,99144.91
2018-03-11T23:27:01.214Z,99150.54
2018-03-11T23:29:28.771Z,99138.62
2018-03-11T23:31:56.408Z,99140.69
2018-03-11T23:34:23.960Z,99139.34
2018-03-11T23:36:51.519Z,99138.09
2018-03-11T23:39:19.070Z,99134.39
2018-03-11T23:41:46.594Z,99130.06
2018-03-11T23:44:14.128Z,99121.47
2018-03-11T23:46:41.691Z,99119.54
2018-03-11T23:49:09.228Z,99119.88
2018-03-11T23:51:36.743Z,99116.33
2018-03-11T23:54:04.422Z,99116.95
2018-03-11T23:56:31.969Z,99119.30
2018-03-11T23:58:59.597Z,99123.13
